Time;durP1;ratioP1;P1;durP2;ratioP2;P2;SDS_P1;SDS_P2;PMS_P1;PMS_P2;Temp;Humidity;BMP_temperature;BMP_pressure;BME280_temperature;BME280_humidity;BME280_pressure;Samples;Min_cycle;Max_cycle;Signal;HPM_P1;HPM_P2
2023/04/12 00:01:44;;;;;;;6.45;3.20;;;;;;;;;;4965239;28;20481;-71
2023/04/12 00:04:09;;;;;;;6.20;3.10;;;;;;;;;;4971282;28;20038;-69
2023/04/12 00:06:35;;;;;;;7.07;3.40;;;;;;;;;;4969667;28;20033;-72
2023/04/12 00:09:01;;;;;;;7.85;2.78;;;;;;;;;;4967860;28;20038;-67
2023/04/12 00:11:27;;;;;;;7.10;2.80;;;;;;;;;;4953100;28;20092;-67
2023/04/12 00:13:52;;;;;;;6.32;2.80;;;;;;;;;;4948105;28;20039;-68
2023/04/12 00:16:17;;;;;;;6.97;3.13;;;;;;;;;;4949287;28;20088;-69
2023/04/12 00:18:44;;;;;;;6.63;3.50;;;;;;;;;;4953676;28;20030;-66
2023/04/12 00:21:09;;;;;;;;;;;;;;;;;;4951605;28;20078;-66
2023/04/12 00:23:36;;;;;;;7.32;3.00;;;;;;;;;;4949292;28;19917;-69
2023/04/12 00:26:03;;;;;;;7.90;3.30;;;;;;;;;;4950541;28;20018;-67
2023/04/12 00:28:29;;;;;;;7.00;2.92;;;;;;;;;;4950125;28;20378;-67
2023/04/12 00:30:55;;;;;;;9.05;3.20;;;;;;;;;;4948733;28;20039;-67
2023/04/12 00:33:20;;;;;;;8.27;3.30;;;;;;;;;;4948567;28;20035;-65
2023/04/12 00:35:45;;;;;;;6.95;3.20;;;;;;;;;;4949369;28;20035;-67
2023/04/12 00:38:10;;;;;;;8.67;3.50;;;;;;;;;;4948540;28;20041;-67
2023/04/12 00:40:39;;;;;;;12.15;3.65;;;;;;;;;;4948984;28;20041;-68
2023/04/12 00:43:04;;;;;;;7.60;3.42;;;;;;;;;;4949108;28;20538;-68
2023/04/12 00:45:30;;;;;;;6.33;2.90;;;;;;;;;;4948160;28;20031;-67
2023/04/12 00:47:55;;;;;;;7.65;3.10;;;;;;;;;;4947685;28;20172;-66
2023/04/12 00:50:22;;;;;;;8.70;3.20;;;;;;;;;;4947984;28;20042;-65
2023/04/12 00:52:47;;;;;;;6.00;3.08;;;;;;;;;;4947136;28;20117;-67
2023/04/12 00:55:12;;;;;;;7.22;2.78;;;;;;;;;;4947831;28;20035;-66
2023/04/12 00:57:38;;;;;;;8.10;3.03;;;;;;;;;;4947971;28;20026;-66
2023/04/12 01:00:12;;;;;;;7.63;3.40;;;;;;;;;;4949196;28;20023;-65
2023/04/12 01:02:38;;;;;;;6.22;2.80;;;;;;;;;;4948191;28;20090;-67
2023/04/12 01:05:04;;;;;;;7.20;2.63;;;;;;;;;;4949831;28;23123;-65
2023/04/12 01:07:36;;;;;;;9.15;2.95;;;;;;;;;;4954190;28;20027;-65
2023/04/12 01:10:07;;;;;;;7.20;2.70;;;;;;;;;;4958492;28;20039;-66
2023/04/12 01:12:41;;;;;;;5.50;2.60;;;;;;;;;;4961345;28;20035;-69
2023/04/12 01:15:08;;;;;;;7.03;2.80;;;;;;;;;;4957850;28;20340;-67
2023/04/12 01:17:36;;;;;;;;;;;;;;;;;;4960866;28;20027;-67
2023/04/12 01:20:12;;;;;;;6.60;2.63;;;;;;;;;;4959223;28;19922;-69
2023/04/12 01:22:58;;;;;;;7.18;3.20;;;;;;;;;;4950632;28;20031;-68
2023/04/12 01:25:34;;;;;;;7.47;3.08;;;;;;;;;;4956781;28;20125;-65
2023/04/12 01:28:01;;;;;;;6.60;2.67;;;;;;;;;;4948848;28;20026;-66
2023/04/12 01:30:26;;;;;;;;;;;;;;;;;;4953225;28;20027;-68
2023/04/12 01:32:53;;;;;;;7.67;2.70;;;;;;;;;;4950173;28;19910;-68
2023/04/12 01:35:21;;;;;;;5.88;2.78;;;;;;;;;;4950905;28;20031;-68
2023/04/12 01:37:46;;;;;;;6.38;2.80;;;;;;;;;;4957111;28;20022;-65
2023/04/12 01:40:12;;;;;;;6.53;2.85;;;;;;;;;;4949838;28;20434;-66
2023/04/12 01:42:38;;;;;;;6.63;2.65;;;;;;;;;;4949564;28;20618;-65
2023/04/12 01:45:04;;;;;;;6.38;2.70;;;;;;;;;;4948888;28;20087;-66
2023/04/12 01:47:29;;;;;;;8.70;2.67;;;;;;;;;;4947150;28;20023;-67
2023/04/12 01:50:13;;;;;;;8.47;2.97;;;;;;;;;;4948269;28;20026;-67
2023/04/12 01:52:41;;;;;;;7.85;2.47;;;;;;;;;;4946923;28;21138;-67
2023/04/12 01:55:08;;;;;;;6.82;2.85;;;;;;;;;;4946683;28;20026;-67
2023/04/12 01:57:34;;;;;;;6.53;2.67;;;;;;;;;;4946776;28;20022;-67
2023/04/12 02:00:00;;;;;;;5.53;2.65;;;;;;;;;;4950846;28;20023;-66
2023/04/12 02:02:26;;;;;;;6.90;2.53;;;;;;;;;;4957352;28;20033;-66
2023/04/12 02:04:51;;;;;;;9.45;2.58;;;;;;;;;;4963680;28;20382;-65
2023/04/12 02:07:17;;;;;;;5.50;2.70;;;;;;;;;;4960344;28;20034;-65
2023/04/12 02:09:42;;;;;;;5.97;2.40;;;;;;;;;;4956816;28;20479;-67
2023/04/12 02:12:08;;;;;;;7.90;2.60;;;;;;;;;;4949911;28;20647;-65
2023/04/12 02:14:33;;;;;;;7.90;2.83;;;;;;;;;;4948746;28;20042;-65
2023/04/12 02:17:01;;;;;;;5.93;2.67;;;;;;;;;;4946805;28;20502;-67
2023/04/12 02:19:26;;;;;;;5.70;2.40;;;;;;;;;;4948705;28;20023;-66
2023/04/12 02:21:51;;;;;;;5.47;2.33;;;;;;;;;;4948311;28;20041;-65
2023/04/12 02:24:17;;;;;;;8.85;2.95;;;;;;;;;;4958792;28;20553;-67
2023/04/12 02:26:42;;;;;;;5.90;2.78;;;;;;;;;;4947983;28;20510;-66
2023/04/12 02:29:08;;;;;;;6.00;2.50;;;;;;;;;;4949559;28;20042;-67
2023/04/12 02:31:34;;;;;;;6.27;3.13;;;;;;;;;;4947063;28;20069;-69
2023/04/12 02:33:59;;;;;;;6.97;2.60;;;;;;;;;;4946783;28;20019;-66
2023/04/12 02:36:25;;;;;;;8.90;3.13;;;;;;;;;;4952616;28;20049;-67
2023/04/12 02:38:50;;;;;;;5.93;2.90;;;;;;;;;;4950533;28;20019;-66
2023/04/12 02:41:19;;;;;;;7.55;3.42;;;;;;;;;;4961640;28;21265;-65
2023/04/12 02:43:44;;;;;;;7.38;2.92;;;;;;;;;;4952428;28;20097;-67
2023/04/12 02:46:12;;;;;;;6.72;2.95;;;;;;;;;;4954300;28;20030;-65
2023/04/12 02:48:37;;;;;;;6.82;2.90;;;;;;;;;;4952717;28;20904;-66
2023/04/12 02:51:02;;;;;;;7.00;2.70;;;;;;;;;;4956201;28;20023;-68
2023/04/12 02:53:27;;;;;;;6.10;2.80;;;;;;;;;;4958020;28;20272;-66
2023/04/12 02:55:53;;;;;;;6.35;2.67;;;;;;;;;;4961814;28;20018;-66
2023/04/12 02:58:21;;;;;;;7.22;3.03;;;;;;;;;;4974535;28;20047;-67
2023/04/12 03:00:48;;;;;;;6.90;3.15;;;;;;;;;;4962752;28;20058;-66
2023/04/12 03:03:16;;;;;;;6.00;2.85;;;;;;;;;;4966296;28;20038;-66
2023/04/12 03:05:45;;;;;;;5.88;2.42;;;;;;;;;;4965111;28;20023;-67
2023/04/12 03:08:11;;;;;;;7.63;2.80;;;;;;;;;;4953884;28;20109;-65
2023/04/12 03:10:36;;;;;;;4.90;2.42;;;;;;;;;;4950456;28;20027;-65
2023/04/12 03:13:01;;;;;;;6.80;2.87;;;;;;;;;;4951018;28;20031;-67
2023/04/12 03:15:26;;;;;;;5.37;2.50;;;;;;;;;;4947764;28;20748;-67
2023/04/12 03:17:52;;;;;;;6.28;2.72;;;;;;;;;;4948155;28;20027;-65
2023/04/12 03:20:19;;;;;;;6.53;2.78;;;;;;;;;;4950374;28;20085;-67
2023/04/12 03:22:44;;;;;;;7.43;3.30;;;;;;;;;;4947183;28;20034;-67
2023/04/12 03:25:11;;;;;;;6.40;2.85;;;;;;;;;;4948095;28;20035;-66
2023/04/12 03:27:36;;;;;;;7.60;3.17;;;;;;;;;;4946328;28;20561;-68
2023/04/12 03:30:02;;;;;;;5.93;2.63;;;;;;;;;;4948710;28;20027;-67
2023/04/12 03:32:28;;;;;;;9.27;2.80;;;;;;;;;;4946818;28;20281;-67
2023/04/12 03:34:54;;;;;;;8.50;2.90;;;;;;;;;;4946153;28;20230;-67
2023/04/12 03:37:19;;;;;;;6.40;3.08;;;;;;;;;;4956370;28;20027;-68
2023/04/12 03:39:46;;;;;;;8.05;2.78;;;;;;;;;;4951776;28;20023;-67
2023/04/12 03:42:11;;;;;;;5.55;2.92;;;;;;;;;;4950088;28;20087;-67
2023/04/12 03:44:36;;;;;;;7.10;2.92;;;;;;;;;;4949765;28;20142;-67
2023/04/12 03:47:02;;;;;;;6.90;3.10;;;;;;;;;;4948688;28;20479;-68
2023/04/12 03:49:27;;;;;;;5.97;2.73;;;;;;;;;;4950364;28;20026;-69
2023/04/12 03:51:52;;;;;;;6.87;3.07;;;;;;;;;;4950953;28;20510;-66
2023/04/12 03:54:17;;;;;;;6.47;3.10;;;;;;;;;;4950661;28;20075;-67
2023/04/12 03:56:42;;;;;;;6.60;3.20;;;;;;;;;;4950825;28;20073;-65
2023/04/12 03:59:09;;;;;;;7.43;3.60;;;;;;;;;;4951900;28;20031;-69
2023/04/12 04:01:34;;;;;;;8.88;3.92;;;;;;;;;;4971335;28;20022;-69
2023/04/12 04:03:59;;;;;;;7.68;3.30;;;;;;;;;;4980332;28;20237;-69
2023/04/12 04:06:25;;;;;;;7.60;3.80;;;;;;;;;;4968905;28;20030;-68
2023/04/12 04:08:50;;;;;;;8.02;3.55;;;;;;;;;;4953202;28;20458;-68
2023/04/12 04:11:17;;;;;;;10.67;3.33;;;;;;;;;;4962281;28;20030;-67
2023/04/12 04:13:42;;;;;;;7.82;3.38;;;;;;;;;;4951160;28;20038;-67
2023/04/12 04:16:09;;;;;;;7.10;3.33;;;;;;;;;;4949969;28;20027;-67
2023/04/12 04:18:34;;;;;;;12.98;3.60;;;;;;;;;;4954100;28;20043;-66
2023/04/12 04:21:00;;;;;;;8.30;3.42;;;;;;;;;;4949751;28;20058;-69
2023/04/12 04:23:27;;;;;;;7.38;3.17;;;;;;;;;;4948199;28;20098;-66
2023/04/12 04:25:53;;;;;;;8.18;4.00;;;;;;;;;;4949157;28;20023;-68
2023/04/12 04:28:18;;;;;;;7.80;3.60;;;;;;;;;;4949056;28;20034;-66
2023/04/12 04:30:45;;;;;;;9.82;3.83;;;;;;;;;;4955926;28;20022;-66
2023/04/12 04:33:11;;;;;;;7.85;3.55;;;;;;;;;;4960069;28;20054;-65
2023/04/12 04:35:42;;;;;;;8.95;3.90;;;;;;;;;;4949760;28;20846;-68
2023/04/12 04:38:07;;;;;;;8.75;3.88;;;;;;;;;;4949606;28;20027;-66
2023/04/12 04:40:35;;;;;;;8.60;3.83;;;;;;;;;;4951819;28;20034;-66
2023/04/12 04:43:00;;;;;;;8.60;4.00;;;;;;;;;;4949167;28;20541;-66
2023/04/12 04:45:25;;;;;;;9.45;3.78;;;;;;;;;;4948558;28;20034;-68
2023/04/12 04:47:54;;;;;;;9.87;3.47;;;;;;;;;;4954218;28;20148;-68
2023/04/12 04:50:22;;;;;;;7.45;3.55;;;;;;;;;;4950915;28;20043;-67
2023/04/12 04:52:48;;;;;;;8.20;4.10;;;;;;;;;;4952633;28;20035;-65
2023/04/12 04:55:13;;;;;;;9.13;3.90;;;;;;;;;;4958393;28;20070;-67
2023/04/12 04:57:42;;;;;;;7.78;3.78;;;;;;;;;;4961073;28;20090;-68
2023/04/12 05:00:10;;;;;;;8.23;3.70;;;;;;;;;;4963648;28;20116;-67
2023/04/12 05:02:36;;;;;;;7.43;3.63;;;;;;;;;;4962105;28;20022;-65
2023/04/12 05:05:03;;;;;;;8.35;3.70;;;;;;;;;;4960395;28;20483;-68
2023/04/12 05:07:28;;;;;;;9.55;3.67;;;;;;;;;;4964600;28;20095;-66
2023/04/12 05:09:53;;;;;;;8.18;3.50;;;;;;;;;;4963630;28;20110;-68
2023/04/12 05:12:18;;;;;;;8.77;3.73;;;;;;;;;;4964881;28;20573;-66
2023/04/12 05:14:43;;;;;;;8.53;4.10;;;;;;;;;;4960629;28;20057;-67
2023/04/12 05:17:08;;;;;;;8.10;3.93;;;;;;;;;;4955150;28;20034;-68
2023/04/12 05:19:34;;;;;;;9.23;3.92;;;;;;;;;;4956105;28;20482;-66
2023/04/12 05:21:59;;;;;;;7.13;3.50;;;;;;;;;;4954542;28;20427;-66
2023/04/12 05:24:24;;;;;;;9.90;3.93;;;;;;;;;;4948316;28;20022;-65
2023/04/12 05:26:49;;;;;;;8.00;3.63;;;;;;;;;;4947275;28;21196;-67
2023/04/12 05:29:15;;;;;;;8.17;3.50;;;;;;;;;;4946942;28;20221;-64
2023/04/12 05:31:40;;;;;;;8.05;3.65;;;;;;;;;;4946855;28;20042;-66
2023/04/12 05:34:05;;;;;;;7.05;3.30;;;;;;;;;;4947797;28;20118;-66
2023/04/12 05:36:30;;;;;;;9.13;3.70;;;;;;;;;;4945610;28;20121;-67
2023/04/12 05:38:56;;;;;;;8.07;3.80;;;;;;;;;;4947316;28;20034;-68
2023/04/12 05:41:21;;;;;;;7.88;3.65;;;;;;;;;;4945905;28;20053;-67
2023/04/12 05:43:46;;;;;;;9.63;4.22;;;;;;;;;;4946542;28;20027;-68
2023/04/12 05:46:11;;;;;;;8.68;3.83;;;;;;;;;;4944812;28;20046;-68
2023/04/12 05:48:36;;;;;;;7.40;3.73;;;;;;;;;;4945394;28;20105;-66
2023/04/12 05:51:02;;;;;;;9.60;4.40;;;;;;;;;;4945905;28;20117;-66
2023/04/12 05:53:28;;;;;;;7.47;3.88;;;;;;;;;;4954515;28;20027;-67
2023/04/12 05:55:54;;;;;;;8.20;3.80;;;;;;;;;;4946090;28;20035;-67
2023/04/12 05:58:19;;;;;;;8.65;3.83;;;;;;;;;;4946093;28;20505;-67
2023/04/12 06:00:44;;;;;;;7.40;3.60;;;;;;;;;;4945150;28;20027;-66
2023/04/12 06:03:10;;;;;;;11.77;4.13;;;;;;;;;;4946298;28;20058;-65
2023/04/12 06:05:35;;;;;;;8.52;4.10;;;;;;;;;;4946250;28;20031;-65
2023/04/12 06:08:00;;;;;;;10.65;3.83;;;;;;;;;;4947513;28;20990;-70
2023/04/12 06:10:26;;;;;;;8.95;4.22;;;;;;;;;;4946416;28;20022;-67
2023/04/12 06:12:51;;;;;;;10.90;4.37;;;;;;;;;;4945092;28;20552;-65
2023/04/12 06:15:18;;;;;;;8.02;4.05;;;;;;;;;;4945159;28;20545;-67
2023/04/12 06:17:44;;;;;;;;;;;;;;;;;;4954911;28;20477;-70
2023/04/12 06:20:09;;;;;;;8.52;4.05;;;;;;;;;;4944183;28;19917;-67
2023/04/12 06:22:35;;;;;;;9.82;4.40;;;;;;;;;;4944374;28;20624;-67
2023/04/12 06:25:00;;;;;;;12.70;4.30;;;;;;;;;;4946143;28;20080;-66
2023/04/12 06:27:26;;;;;;;10.80;4.65;;;;;;;;;;4944795;28;20027;-67
2023/04/12 06:29:51;;;;;;;10.95;4.20;;;;;;;;;;4947176;28;20030;-65
2023/04/12 06:32:16;;;;;;;10.23;4.18;;;;;;;;;;4944838;28;20648;-67
2023/04/12 06:34:41;;;;;;;8.10;4.00;;;;;;;;;;4947913;28;20037;-67
2023/04/12 06:37:07;;;;;;;9.27;4.53;;;;;;;;;;4951206;28;20050;-69
2023/04/12 06:39:32;;;;;;;10.33;4.27;;;;;;;;;;4955890;28;20050;-67
2023/04/12 06:41:57;;;;;;;12.63;4.90;;;;;;;;;;4962326;28;20431;-67
2023/04/12 06:44:22;;;;;;;9.27;4.80;;;;;;;;;;4960635;28;20030;-67
2023/04/12 06:46:47;;;;;;;9.40;4.57;;;;;;;;;;4964121;28;20057;-68
2023/04/12 06:49:13;;;;;;;9.32;4.30;;;;;;;;;;4970189;28;20041;-66
2023/04/12 06:51:38;;;;;;;9.27;4.47;;;;;;;;;;4965363;28;20026;-73
2023/04/12 06:54:03;;;;;;;8.05;4.00;;;;;;;;;;4961892;28;20042;-68
2023/04/12 06:56:28;;;;;;;10.02;4.65;;;;;;;;;;4959278;28;20031;-68
2023/04/12 06:58:53;;;;;;;8.57;4.10;;;;;;;;;;4954499;28;20170;-68
2023/04/12 07:01:18;;;;;;;9.18;4.05;;;;;;;;;;4952282;28;20039;-65
2023/04/12 07:03:46;;;;;;;8.77;4.10;;;;;;;;;;4945868;28;20039;-66
2023/04/12 07:06:12;;;;;;;10.15;4.13;;;;;;;;;;4943982;28;20039;-68
2023/04/12 07:08:37;;;;;;;8.30;3.70;;;;;;;;;;4944657;28;20027;-68
2023/04/12 07:11:02;;;;;;;10.13;4.20;;;;;;;;;;4943606;28;20231;-67
2023/04/12 07:13:28;;;;;;;8.98;4.15;;;;;;;;;;4944798;28;20102;-65
2023/04/12 07:15:53;;;;;;;8.43;4.18;;;;;;;;;;4949250;28;20105;-67
2023/04/12 07:18:19;;;;;;;8.80;3.40;;;;;;;;;;4948099;28;20055;-68
2023/04/12 07:20:47;;;;;;;9.07;4.00;;;;;;;;;;4949308;28;20035;-65
2023/04/12 07:23:14;;;;;;;10.40;4.43;;;;;;;;;;4948538;28;20062;-65
2023/04/12 07:25:39;;;;;;;8.52;3.85;;;;;;;;;;4947885;28;20767;-64
2023/04/12 07:28:05;;;;;;;8.00;3.93;;;;;;;;;;4947993;28;20035;-68
2023/04/12 07:30:30;;;;;;;10.77;3.75;;;;;;;;;;4948467;28;20489;-68
2023/04/12 07:32:55;;;;;;;9.23;3.60;;;;;;;;;;4950229;28;20015;-65
2023/04/12 07:35:20;;;;;;;8.77;3.43;;;;;;;;;;4947110;28;20391;-68
2023/04/12 07:37:46;;;;;;;6.80;3.10;;;;;;;;;;4947317;28;20445;-67
2023/04/12 07:40:11;;;;;;;9.47;3.43;;;;;;;;;;4947507;28;20023;-68
2023/04/12 07:42:36;;;;;;;8.43;3.20;;;;;;;;;;4946836;28;20110;-68
2023/04/12 07:45:01;;;;;;;8.25;2.90;;;;;;;;;;4947262;28;20035;-68
2023/04/12 07:47:26;;;;;;;8.00;3.30;;;;;;;;;;4948972;28;20462;-67
2023/04/12 07:49:51;;;;;;;10.57;2.80;;;;;;;;;;4948247;28;21033;-69
2023/04/12 07:52:17;;;;;;;8.53;2.27;;;;;;;;;;4948166;28;20023;-67
2023/04/12 07:54:42;;;;;;;9.55;3.00;;;;;;;;;;4947512;28;20105;-68
2023/04/12 07:57:09;;;;;;;6.57;2.70;;;;;;;;;;4945166;28;20034;-67
2023/04/12 07:59:34;;;;;;;6.10;2.58;;;;;;;;;;4947162;28;20034;-67
2023/04/12 08:01:59;;;;;;;8.35;2.60;;;;;;;;;;4946567;28;20049;-68
2023/04/12 08:04:27;;;;;;;6.33;2.20;;;;;;;;;;4946631;28;20058;-66
2023/04/12 08:06:52;;;;;;;7.40;2.50;;;;;;;;;;4946966;28;20035;-67
2023/04/12 08:09:17;;;;;;;7.27;2.10;;;;;;;;;;4947488;28;20509;-66
2023/04/12 08:11:42;;;;;;;7.53;1.83;;;;;;;;;;4946054;28;20041;-67
2023/04/12 08:14:07;;;;;;;4.37;1.63;;;;;;;;;;4947236;28;20083;-66
2023/04/12 08:16:33;;;;;;;6.38;1.70;;;;;;;;;;4947832;28;20031;-66
2023/04/12 08:18:58;;;;;;;5.15;1.42;;;;;;;;;;4947003;28;20082;-66
2023/04/12 08:21:23;;;;;;;7.10;1.57;;;;;;;;;;4946171;28;20030;-66
2023/04/12 08:23:49;;;;;;;7.00;1.30;;;;;;;;;;4946612;28;20019;-66
2023/04/12 08:26:15;;;;;;;3.85;1.20;;;;;;;;;;4945733;28;20478;-66
2023/04/12 08:28:40;;;;;;;4.83;0.83;;;;;;;;;;4946369;28;20031;-68
2023/04/12 08:31:06;;;;;;;2.50;0.90;;;;;;;;;;4946740;28;20100;-66
2023/04/12 08:33:31;;;;;;;7.10;1.25;;;;;;;;;;4947406;28;20033;-66
2023/04/12 08:35:57;;;;;;;5.43;1.00;;;;;;;;;;4945770;28;20014;-69
2023/04/12 08:38:23;;;;;;;6.25;1.20;;;;;;;;;;4946008;28;20031;-69
2023/04/12 08:40:48;;;;;;;4.22;0.93;;;;;;;;;;4947611;28;20023;-68
2023/04/12 08:43:14;;;;;;;4.32;1.02;;;;;;;;;;4945497;28;20035;-67
2023/04/12 08:45:39;;;;;;;4.13;0.80;;;;;;;;;;4947423;28;20053;-68
2023/04/12 08:48:04;;;;;;;3.87;0.90;;;;;;;;;;4955373;28;20089;-65
2023/04/12 08:50:30;;;;;;;4.20;0.90;;;;;;;;;;4955475;28;20475;-65
2023/04/12 08:52:56;;;;;;;4.63;1.20;;;;;;;;;;4955871;28;20058;-65
2023/04/12 08:55:21;;;;;;;5.93;1.10;;;;;;;;;;4955286;28;20026;-65
2023/04/12 08:57:47;;;;;;;5.95;1.30;;;;;;;;;;4954882;28;20431;-66
2023/04/12 09:00:13;;;;;;;4.53;0.80;;;;;;;;;;4955136;28;20034;-65
2023/04/12 09:02:41;;;;;;;3.67;1.13;;;;;;;;;;4955896;28;20022;-67
2023/04/12 09:05:08;;;;;;;4.85;1.10;;;;;;;;;;4955332;28;20034;-67
2023/04/12 09:07:33;;;;;;;;;;;;;;;;;;4954987;28;20372;-66
2023/04/12 09:09:58;;;;;;;5.28;1.00;;;;;;;;;;4954512;28;20302;-65
2023/04/12 09:12:24;;;;;;;3.33;0.90;;;;;;;;;;4954659;28;20194;-66
2023/04/12 09:15:08;;;;;;;5.65;1.02;;;;;;;;;;4954761;28;20114;-65
2023/04/12 09:17:35;;;;;;;6.43;1.67;;;;;;;;;;4954853;28;20043;-66
2023/04/12 09:20:00;;;;;;;5.28;1.10;;;;;;;;;;4955046;28;20054;-65
2023/04/12 09:22:35;;;;;;;4.45;0.73;;;;;;;;;;4964307;28;20058;-66
2023/04/12 09:25:01;;;;;;;3.05;0.80;;;;;;;;;;4974952;28;20030;-65
2023/04/12 09:27:27;;;;;;;4.68;1.00;;;;;;;;;;4973985;28;20023;-66
2023/04/12 09:30:05;;;;;;;3.97;0.80;;;;;;;;;;4987027;28;20045;-68
2023/04/12 09:32:30;;;;;;;3.97;1.10;;;;;;;;;;4985578;28;20033;-65
2023/04/12 09:34:56;;;;;;;4.75;1.15;;;;;;;;;;4989396;28;20027;-67
2023/04/12 09:37:21;;;;;;;;;;;;;;;;;;4990657;28;20023;-69
2023/04/12 09:39:46;;;;;;;5.00;1.13;;;;;;;;;;4978109;28;19914;-67
2023/04/12 09:42:13;;;;;;;3.47;0.85;;;;;;;;;;4974920;28;20042;-67
2023/04/12 09:44:39;;;;;;;3.10;0.82;;;;;;;;;;4974383;28;20170;-66
2023/04/12 09:47:05;;;;;;;6.53;1.30;;;;;;;;;;4972895;28;20526;-65
2023/04/12 09:49:37;;;;;;;4.60;1.10;;;;;;;;;;4973141;28;20081;-66
2023/04/12 09:52:03;;;;;;;6.32;1.17;;;;;;;;;;4973352;28;20027;-66
2023/04/12 09:54:29;;;;;;;5.45;1.30;;;;;;;;;;4973265;28;20038;-65
2023/04/12 09:56:56;;;;;;;5.00;1.30;;;;;;;;;;4972485;28;20358;-65
2023/04/12 09:59:21;;;;;;;4.88;1.30;;;;;;;;;;4973216;28;20101;-64
2023/04/12 10:01:49;;;;;;;4.38;1.17;;;;;;;;;;4973392;28;20487;-65
2023/04/12 10:04:14;;;;;;;6.22;1.60;;;;;;;;;;4974031;28;20019;-66
2023/04/12 10:06:40;;;;;;;4.63;1.50;;;;;;;;;;4974206;28;20157;-65
2023/04/12 10:09:07;;;;;;;5.43;1.40;;;;;;;;;;4974413;28;20015;-65
2023/04/12 10:11:33;;;;;;;6.57;1.40;;;;;;;;;;4972919;28;20027;-66
2023/04/12 10:13:58;;;;;;;6.07;1.45;;;;;;;;;;4972848;28;20502;-67
2023/04/12 10:16:26;;;;;;;6.47;1.70;;;;;;;;;;4972451;28;20073;-65
2023/04/12 10:18:53;;;;;;;4.72;1.50;;;;;;;;;;4972503;28;20042;-66
2023/04/12 10:21:19;;;;;;;4.68;1.65;;;;;;;;;;4972170;28;20035;-66
2023/04/12 10:23:45;;;;;;;6.53;1.60;;;;;;;;;;4972472;28;20023;-67
2023/04/12 10:26:10;;;;;;;4.38;1.60;;;;;;;;;;4973014;28;20015;-65
2023/04/12 10:28:35;;;;;;;5.00;1.70;;;;;;;;;;4972501;28;20364;-65
2023/04/12 10:31:20;;;;;;;5.47;1.67;;;;;;;;;;4972408;28;20226;-65
2023/04/12 10:33:46;;;;;;;7.07;1.73;;;;;;;;;;4972146;28;20446;-65
2023/04/12 10:36:11;;;;;;;4.97;1.70;;;;;;;;;;4971692;28;20030;-66
2023/04/12 10:38:46;;;;;;;6.95;1.90;;;;;;;;;;4972626;28;20019;-67
2023/04/12 10:41:18;;;;;;;5.20;1.83;;;;;;;;;;4970883;28;20035;-67
2023/04/12 10:43:43;;;;;;;5.78;1.80;;;;;;;;;;4972291;28;20062;-65
2023/04/12 10:46:29;;;;;;;8.93;1.87;;;;;;;;;;4971731;28;20475;-66
2023/04/12 10:48:55;;;;;;;5.18;1.88;;;;;;;;;;4971676;28;20538;-68
2023/04/12 10:51:24;;;;;;;7.07;1.70;;;;;;;;;;4972178;28;20031;-64
2023/04/12 10:53:53;;;;;;;4.97;2.00;;;;;;;;;;4972020;28;20027;-66
2023/04/12 10:56:33;;;;;;;6.45;1.83;;;;;;;;;;4971962;28;20033;-66
2023/04/12 10:59:02;;;;;;;4.60;1.60;;;;;;;;;;4972382;28;20019;-66
2023/04/12 11:01:27;;;;;;;5.97;2.10;;;;;;;;;;4971781;28;20113;-68
2023/04/12 11:04:05;;;;;;;6.35;2.30;;;;;;;;;;4972359;28;20039;-66
2023/04/12 11:06:50;;;;;;;5.57;2.15;;;;;;;;;;4971709;28;20054;-66
2023/04/12 11:09:25;;;;;;;6.40;2.30;;;;;;;;;;4973310;28;20363;-69
2023/04/12 11:11:55;;;;;;;6.18;2.00;;;;;;;;;;4972068;28;20491;-67
2023/04/12 11:14:26;;;;;;;4.90;1.80;;;;;;;;;;4972365;28;20220;-67
2023/04/12 11:17:09;;;;;;;8.20;2.47;;;;;;;;;;4971531;28;20027;-68
2023/04/12 11:19:35;;;;;;;;;;;;;;;;;;4972428;28;20022;-66
2023/04/12 11:22:01;;;;;;;6.28;2.00;;;;;;;;;;4961450;28;19921;-66
2023/04/12 11:24:26;;;;;;;7.25;2.17;;;;;;;;;;4952838;28;20043;-66
2023/04/12 11:26:51;;;;;;;6.57;2.15;;;;;;;;;;4951848;28;20154;-66
2023/04/12 11:29:22;;;;;;;6.93;2.13;;;;;;;;;;4952733;29;20497;-66
2023/04/12 11:31:47;;;;;;;6.57;2.20;;;;;;;;;;4952661;28;20043;-67
2023/04/12 11:34:12;;;;;;;6.85;2.17;;;;;;;;;;4952648;29;20463;-67
2023/04/12 11:36:37;;;;;;;6.22;2.28;;;;;;;;;;4951975;28;20020;-66
2023/04/12 11:39:02;;;;;;;4.75;2.10;;;;;;;;;;4952429;28;20043;-66
2023/04/12 11:41:28;;;;;;;5.75;2.55;;;;;;;;;;4952351;29;20022;-68
2023/04/12 11:43:53;;;;;;;7.20;2.50;;;;;;;;;;4952549;29;20459;-66
2023/04/12 11:46:18;;;;;;;6.73;2.53;;;;;;;;;;4952332;28;20604;-65
2023/04/12 11:48:46;;;;;;;7.00;2.10;;;;;;;;;;4952733;28;20028;-65
2023/04/12 11:51:19;;;;;;;5.50;2.13;;;;;;;;;;4953008;29;20066;-68
2023/04/12 11:53:44;;;;;;;8.38;2.72;;;;;;;;;;4951620;29;20391;-66
2023/04/12 11:56:09;;;;;;;6.73;2.43;;;;;;;;;;4952734;28;20019;-68
2023/04/12 11:58:35;;;;;;;7.33;2.57;;;;;;;;;;4955069;29;20036;-66
2023/04/12 12:01:00;;;;;;;6.03;2.10;;;;;;;;;;4959566;28;20035;-66
2023/04/12 12:03:25;;;;;;;7.80;2.70;;;;;;;;;;4960488;28;20027;-67
2023/04/12 12:05:50;;;;;;;8.10;2.50;;;;;;;;;;4961407;29;20410;-68
2023/04/12 12:08:16;;;;;;;6.67;2.33;;;;;;;;;;4961975;29;20096;-66
2023/04/12 12:10:41;;;;;;;6.57;2.22;;;;;;;;;;4962260;28;20387;-67
2023/04/12 12:13:10;;;;;;;7.60;2.37;;;;;;;;;;4961863;29;20082;-67
2023/04/12 12:15:36;;;;;;;6.93;2.10;;;;;;;;;;4962233;28;20038;-67
2023/04/12 12:18:01;;;;;;;5.22;1.98;;;;;;;;;;4962952;28;20055;-66
2023/04/12 12:20:26;;;;;;;10.38;2.38;;;;;;;;;;4960049;29;20514;-68
2023/04/12 12:22:51;;;;;;;5.63;1.90;;;;;;;;;;4972512;28;20015;-67
2023/04/12 12:25:17;;;;;;;5.53;1.85;;;;;;;;;;4974953;28;20027;-66
2023/04/12 12:27:46;;;;;;;6.22;2.00;;;;;;;;;;4974652;28;20026;-66
2023/04/12 12:30:12;;;;;;;7.22;1.95;;;;;;;;;;4975190;28;20027;-65
2023/04/12 12:32:38;;;;;;;7.80;2.05;;;;;;;;;;4975236;28;20059;-66
2023/04/12 12:35:03;;;;;;;;;;;;;;;;;;4975030;28;20359;-67
2023/04/12 12:37:29;;;;;;;5.93;1.90;;;;;;;;;;4974075;28;19906;-68
2023/04/12 12:40:12;;;;;;;5.22;1.95;;;;;;;;;;4974643;28;20098;-69
2023/04/12 12:42:44;;;;;;;6.57;1.90;;;;;;;;;;4974035;28;20023;-67
2023/04/12 12:45:09;;;;;;;;;;;;;;;;;;4975083;28;20022;-69
2023/04/12 12:47:43;;;;;;;6.25;1.90;;;;;;;;;;4974019;28;19942;-67
2023/04/12 12:50:12;;;;;;;5.45;2.08;;;;;;;;;;4974364;28;20050;-68
2023/04/12 12:52:37;;;;;;;6.28;1.75;;;;;;;;;;4974280;28;20018;-66
2023/04/12 12:55:02;;;;;;;7.32;1.67;;;;;;;;;;4974160;28;20390;-67
2023/04/12 12:57:27;;;;;;;5.77;1.30;;;;;;;;;;4973333;28;20057;-66
2023/04/12 12:59:52;;;;;;;5.43;1.30;;;;;;;;;;4974137;28;20027;-67
2023/04/12 13:02:18;;;;;;;5.18;1.27;;;;;;;;;;4974138;28;20031;-66
2023/04/12 13:04:45;;;;;;;5.65;1.40;;;;;;;;;;4974055;28;20023;-67
2023/04/12 13:07:10;;;;;;;5.38;1.38;;;;;;;;;;4973834;28;20030;-65
2023/04/12 13:09:35;;;;;;;5.82;1.65;;;;;;;;;;4974332;28;20015;-65
2023/04/12 13:12:01;;;;;;;6.10;1.60;;;;;;;;;;4973791;28;20065;-67
2023/04/12 13:14:27;;;;;;;5.82;1.33;;;;;;;;;;4973858;28;20541;-65
2023/04/12 13:16:52;;;;;;;7.43;1.35;;;;;;;;;;4972906;28;20382;-66
2023/04/12 13:19:18;;;;;;;5.97;1.48;;;;;;;;;;4973726;28;20094;-67
2023/04/12 13:21:43;;;;;;;5.53;1.23;;;;;;;;;;4965505;28;20054;-67
2023/04/12 13:24:08;;;;;;;4.97;1.20;;;;;;;;;;4954358;29;20027;-67
2023/04/12 13:26:33;;;;;;;4.88;1.25;;;;;;;;;;4953976;29;20023;-69
2023/04/12 13:29:00;;;;;;;6.00;1.38;;;;;;;;;;4954718;28;20026;-66
2023/04/12 13:31:25;;;;;;;;;;;;;;;;;;4954715;29;20079;-67
2023/04/12 13:33:50;;;;;;;4.70;1.30;;;;;;;;;;4953803;28;19953;-66
2023/04/12 13:36:15;;;;;;;4.53;1.17;;;;;;;;;;4952290;29;20027;-67
2023/04/12 13:38:40;;;;;;;5.32;1.30;;;;;;;;;;4953970;28;20034;-67
2023/04/12 13:41:06;;;;;;;5.67;1.50;;;;;;;;;;4953908;28;20024;-68
2023/04/12 13:43:31;;;;;;;5.93;1.10;;;;;;;;;;4953571;28;20467;-67
2023/04/12 13:45:56;;;;;;;4.73;1.27;;;;;;;;;;4953827;28;20026;-68
2023/04/12 13:48:22;;;;;;;4.40;1.15;;;;;;;;;;4953237;28;20035;-68
2023/04/12 13:50:49;;;;;;;4.45;1.08;;;;;;;;;;4953755;29;20038;-68
2023/04/12 13:53:14;;;;;;;6.43;1.20;;;;;;;;;;4953328;29;20020;-68
2023/04/12 13:55:40;;;;;;;4.43;1.17;;;;;;;;;;4954223;29;20027;-67
2023/04/12 13:58:05;;;;;;;6.23;1.10;;;;;;;;;;4953674;29;20105;-69
2023/04/12 14:00:30;;;;;;;4.60;0.98;;;;;;;;;;4954079;29;20027;-68
2023/04/12 14:02:55;;;;;;;5.43;1.20;;;;;;;;;;4953389;29;20023;-67
2023/04/12 14:05:20;;;;;;;4.97;1.00;;;;;;;;;;4953362;29;20035;-69
2023/04/12 14:07:48;;;;;;;6.32;1.02;;;;;;;;;;4952810;29;21005;-65
2023/04/12 14:10:13;;;;;;;5.28;1.00;;;;;;;;;;4953316;29;20024;-68
2023/04/12 14:12:39;;;;;;;5.28;1.10;;;;;;;;;;4953650;29;20479;-68
2023/04/12 14:15:04;;;;;;;5.65;1.30;;;;;;;;;;4952948;29;20031;-69
2023/04/12 14:17:31;;;;;;;7.07;1.38;;;;;;;;;;4952723;28;20023;-67
2023/04/12 14:19:56;;;;;;;6.30;1.52;;;;;;;;;;4952823;29;20031;-67
2023/04/12 14:22:21;;;;;;;4.97;1.17;;;;;;;;;;4966274;28;20022;-66
2023/04/12 14:24:46;;;;;;;4.20;1.17;;;;;;;;;;4972818;28;20121;-66
2023/04/12 14:27:12;;;;;;;5.40;1.30;;;;;;;;;;4971833;28;20398;-66
2023/04/12 14:29:38;;;;;;;4.33;1.20;;;;;;;;;;4972404;28;20094;-66
2023/04/12 14:32:03;;;;;;;4.78;0.90;;;;;;;;;;4972729;28;20019;-66
2023/04/12 14:34:29;;;;;;;5.97;1.30;;;;;;;;;;4972327;28;20547;-67
2023/04/12 14:36:55;;;;;;;5.20;1.05;;;;;;;;;;4972259;28;20030;-67
2023/04/12 14:39:20;;;;;;;8.40;1.10;;;;;;;;;;4971823;28;20647;-66
2023/04/12 14:41:46;;;;;;;6.88;1.35;;;;;;;;;;4970763;28;20109;-67